Time;durP1;ratioP1;P1;durP2;ratioP2;P2;SDS_P1;SDS_P2;PMS_P1;PMS_P2;Temp;Humidity;BMP_temperature;BMP_pressure;BME280_temperature;BME280_humidity;BME280_pressure;Samples;Min_cycle;Max_cycle;Signal;HPM_P1;HPM_P2
2021/03/21 00:02:09;;;;;;;4.00;3.60;;;;;;;;;;5034502;28;20853;-84
2021/03/21 00:04:41;;;;;;;3.50;3.17;;;;;;;;;;5017946;28;20807;-84
2021/03/21 00:07:07;;;;;;;4.45;3.20;;;;;;;;;;5029645;28;20456;-85
2021/03/21 00:09:33;;;;;;;4.30;2.90;;;;;;;;;;5032973;28;20405;-84
2021/03/21 00:11:59;;;;;;;3.08;2.78;;;;;;;;;;5033884;28;20518;-85
2021/03/21 00:14:25;;;;;;;4.43;3.15;;;;;;;;;;5051922;28;20904;-85
2021/03/21 00:16:51;;;;;;;3.63;3.27;;;;;;;;;;5032334;28;20460;-84
2021/03/21 00:19:17;;;;;;;3.55;2.95;;;;;;;;;;5033744;28;20480;-85
2021/03/21 00:21:43;;;;;;;3.53;2.90;;;;;;;;;;5034133;28;20378;-85
2021/03/21 00:24:09;;;;;;;3.93;3.53;;;;;;;;;;5034116;28;20484;-85
2021/03/21 00:26:35;;;;;;;4.90;4.50;;;;;;;;;;5018850;28;20422;-84
2021/03/21 00:29:02;;;;;;;5.45;3.30;;;;;;;;;;5051861;28;20398;-84
2021/03/21 00:31:28;;;;;;;4.88;3.25;;;;;;;;;;5026154;28;20899;-85
2021/03/21 00:33:54;;;;;;;4.00;3.13;;;;;;;;;;5032545;28;20408;-84
2021/03/21 00:36:23;;;;;;;4.85;3.78;;;;;;;;;;5033783;28;20463;-85
2021/03/21 00:38:50;;;;;;;3.90;3.40;;;;;;;;;;5028551;28;20413;-84
2021/03/21 00:41:20;;;;;;;3.55;3.25;;;;;;;;;;5033435;28;20428;-84
2021/03/21 00:43:45;;;;;;;5.43;3.88;;;;;;;;;;5033981;28;20413;-85
2021/03/21 00:46:12;;;;;;;3.83;3.40;;;;;;;;;;5051597;28;20385;-85
2021/03/21 00:48:41;;;;;;;4.85;4.05;;;;;;;;;;5017684;28;20395;-85
2021/03/21 00:51:07;;;;;;;4.10;3.70;;;;;;;;;;5030698;28;20922;-84
2021/03/21 00:53:33;;;;;;;4.45;3.78;;;;;;;;;;5028328;28;20761;-84
2021/03/21 00:55:59;;;;;;;4.78;3.67;;;;;;;;;;5051523;28;20401;-84
2021/03/21 00:58:25;;;;;;;5.00;4.00;;;;;;;;;;5016919;28;20401;-85
2021/03/21 01:00:55;;;;;;;4.80;3.80;;;;;;;;;;5016764;28;20748;-85
2021/03/21 01:03:21;;;;;;;7.07;3.57;;;;;;;;;;5017257;28;20382;-85
2021/03/21 01:05:48;;;;;;;4.82;4.20;;;;;;;;;;5013517;28;20449;-84
2021/03/21 01:08:33;;;;;;;6.75;4.85;;;;;;;;;;5049695;28;20393;-84
2021/03/21 01:11:02;;;;;;;6.03;4.65;;;;;;;;;;5033673;28;20897;-85
2021/03/21 01:13:28;;;;;;;5.90;4.30;;;;;;;;;;5044249;28;20773;-85
2021/03/21 01:15:54;;;;;;;4.53;3.92;;;;;;;;;;5025610;28;20909;-85
2021/03/21 01:18:21;;;;;;;4.90;4.27;;;;;;;;;;4998554;28;20399;-84
2021/03/21 01:20:47;;;;;;;4.82;4.32;;;;;;;;;;5015245;28;20395;-84
2021/03/21 01:23:13;;;;;;;5.85;4.43;;;;;;;;;;5017036;28;20467;-84
2021/03/21 01:25:39;;;;;;;7.07;4.70;;;;;;;;;;5025065;28;20398;-85
2021/03/21 01:28:17;;;;;;;7.05;5.50;;;;;;;;;;5036155;28;20495;-85
2021/03/21 01:30:43;;;;;;;7.75;6.45;;;;;;;;;;5055055;28;20409;-84
2021/03/21 01:33:09;;;;;;;6.57;5.10;;;;;;;;;;5037481;28;20455;-85
2021/03/21 01:35:35;;;;;;;4.95;4.15;;;;;;;;;;5036952;28;20397;-84
2021/03/21 01:38:01;;;;;;;4.55;3.95;;;;;;;;;;5054803;28;20875;-85
2021/03/21 01:40:27;;;;;;;5.35;3.90;;;;;;;;;;5036762;28;20393;-84
2021/03/21 01:42:53;;;;;;;4.03;3.17;;;;;;;;;;5020303;28;20501;-85
2021/03/21 01:45:31;;;;;;;5.20;3.70;;;;;;;;;;5054845;28;20404;-85
2021/03/21 01:47:57;;;;;;;3.90;3.20;;;;;;;;;;5036406;28;20397;-84
2021/03/21 01:50:39;;;;;;;4.90;3.83;;;;;;;;;;5036532;28;20927;-85
2021/03/21 01:53:05;;;;;;;4.25;3.30;;;;;;;;;;5054252;28;20876;-84
2021/03/21 01:55:31;;;;;;;4.35;3.40;;;;;;;;;;5022401;28;20494;-85
2021/03/21 01:57:57;;;;;;;5.25;3.60;;;;;;;;;;5036382;28;20480;-85
2021/03/21 02:00:23;;;;;;;4.13;3.57;;;;;;;;;;5019764;28;20961;-85
2021/03/21 02:02:49;;;;;;;3.33;2.92;;;;;;;;;;5013244;28;20440;-84
2021/03/21 02:05:15;;;;;;;5.00;3.83;;;;;;;;;;5028768;28;20407;-85
2021/03/21 02:08:00;;;;;;;4.10;2.97;;;;;;;;;;5033154;28;20391;-85
2021/03/21 02:10:32;;;;;;;4.38;3.20;;;;;;;;;;5034429;28;20743;-85
2021/03/21 02:13:19;;;;;;;3.22;2.92;;;;;;;;;;5035104;28;20417;-85
2021/03/21 02:15:51;;;;;;;3.97;3.17;;;;;;;;;;5018477;28;20405;-84
2021/03/21 02:18:20;;;;;;;4.53;3.28;;;;;;;;;;5034013;28;20394;-85
2021/03/21 02:21:04;;;;;;;4.05;3.55;;;;;;;;;;5036351;28;20390;-85
2021/03/21 02:23:51;;;;;;;4.50;3.63;;;;;;;;;;5053952;28;20435;-84
2021/03/21 02:26:17;;;;;;;4.07;3.50;;;;;;;;;;5053569;28;20432;-84
2021/03/21 02:28:53;;;;;;;5.70;4.18;;;;;;;;;;5035247;28;20495;-84
2021/03/21 02:31:25;;;;;;;4.00;3.60;;;;;;;;;;5054200;28;20417;-84
2021/03/21 02:33:52;;;;;;;3.17;2.88;;;;;;;;;;5012596;28;20423;-84
2021/03/21 02:36:20;;;;;;;4.07;2.67;;;;;;;;;;5016441;28;20423;-85
2021/03/21 02:38:46;;;;;;;4.60;3.10;;;;;;;;;;5018066;28;20397;-84
2021/03/21 02:41:32;;;;;;;5.77;3.00;;;;;;;;;;5053625;28;20458;-85
2021/03/21 02:44:07;;;;;;;3.55;2.47;;;;;;;;;;5051580;28;20412;-84
2021/03/21 02:46:35;;;;;;;4.15;2.55;;;;;;;;;;5052576;28;20394;-84
2021/03/21 02:49:06;;;;;;;2.70;2.50;;;;;;;;;;5035534;28;20413;-84
2021/03/21 02:51:34;;;;;;;4.45;2.45;;;;;;;;;;5011572;28;20414;-84
2021/03/21 02:54:03;;;;;;;2.83;2.53;;;;;;;;;;5033346;28;20394;-84
2021/03/21 02:56:32;;;;;;;5.22;3.10;;;;;;;;;;5015723;28;20403;-84
2021/03/21 02:59:02;;;;;;;4.88;2.97;;;;;;;;;;5033597;28;20383;-85
2021/03/21 03:01:30;;;;;;;4.33;2.87;;;;;;;;;;5027121;28;20397;-84
2021/03/21 03:03:57;;;;;;;3.45;2.70;;;;;;;;;;5022296;28;20913;-85
2021/03/21 03:06:34;;;;;;;2.88;2.20;;;;;;;;;;5035620;28;20868;-84
2021/03/21 03:09:03;;;;;;;4.28;2.80;;;;;;;;;;5006991;28;20401;-85
2021/03/21 03:11:39;;;;;;;3.60;2.40;;;;;;;;;;5018706;28;20438;-85
2021/03/21 03:14:05;;;;;;;3.00;2.70;;;;;;;;;;5015356;28;20746;-84
2021/03/21 03:16:39;;;;;;;3.27;2.93;;;;;;;;;;5036687;28;20480;-84
2021/03/21 03:19:13;;;;;;;3.45;2.88;;;;;;;;;;5060624;28;20401;-84
2021/03/21 03:21:58;;;;;;;24.52;15.25;;;;;;;;;;5035365;28;20873;-85
2021/03/21 03:24:29;;;;;;;46.75;28.65;;;;;;;;;;5022335;28;20436;-84
2021/03/21 03:27:03;;;;;;;15.35;11.32;;;;;;;;;;5016752;28;20460;-85
2021/03/21 03:29:39;;;;;;;15.35;9.40;;;;;;;;;;5018586;28;20891;-85
2021/03/21 03:32:07;;;;;;;12.33;8.17;;;;;;;;;;5034656;28;20528;-84
2021/03/21 03:34:33;;;;;;;17.02;7.80;;;;;;;;;;5018338;28;20489;-85
2021/03/21 03:36:59;;;;;;;10.88;7.07;;;;;;;;;;5034886;28;20488;-85
2021/03/21 03:39:25;;;;;;;5.65;4.70;;;;;;;;;;5011811;28;20395;-85
2021/03/21 03:41:57;;;;;;;4.33;3.87;;;;;;;;;;5031848;28;20410;-84
2021/03/21 03:44:26;;;;;;;5.28;3.47;;;;;;;;;;5034896;28;20405;-84
2021/03/21 03:46:55;;;;;;;5.38;4.72;;;;;;;;;;5033302;28;20405;-85
2021/03/21 03:49:28;;;;;;;5.25;4.05;;;;;;;;;;5034602;28;20444;-84
2021/03/21 03:52:13;;;;;;;7.65;5.32;;;;;;;;;;5034363;28;20424;-85
2021/03/21 03:54:42;;;;;;;11.35;6.13;;;;;;;;;;5034120;28;20396;-85
2021/03/21 03:57:13;;;;;;;14.00;7.97;;;;;;;;;;5063856;28;20399;-85
2021/03/21 03:59:55;;;;;;;14.80;8.60;;;;;;;;;;5054638;28;20813;-84
2021/03/21 04:02:25;;;;;;;5.57;4.40;;;;;;;;;;5034341;28;20421;-85
2021/03/21 04:05:15;;;;;;;7.50;4.97;;;;;;;;;;5025070;28;20399;-85
2021/03/21 04:07:44;;;;;;;6.60;5.22;;;;;;;;;;5032174;28;20406;-85
2021/03/21 04:10:13;;;;;;;8.05;5.50;;;;;;;;;;5052085;28;20441;-85
2021/03/21 04:12:43;;;;;;;4.75;4.25;;;;;;;;;;5050144;28;20448;-84
2021/03/21 04:15:22;;;;;;;9.75;4.65;;;;;;;;;;5033513;28;20463;-84
2021/03/21 04:17:50;;;;;;;4.75;3.83;;;;;;;;;;5015278;28;20452;-84
2021/03/21 04:20:19;;;;;;;4.28;3.70;;;;;;;;;;5030824;28;20387;-84
2021/03/21 04:22:48;;;;;;;4.38;3.28;;;;;;;;;;5050501;28;20394;-84
2021/03/21 04:25:17;;;;;;;3.38;3.05;;;;;;;;;;5023242;28;20397;-85
2021/03/21 04:27:44;;;;;;;4.03;3.15;;;;;;;;;;5033919;28;20382;-84
2021/03/21 04:30:13;;;;;;;3.88;3.15;;;;;;;;;;5033145;28;20486;-84
2021/03/21 04:32:46;;;;;;;4.05;3.10;;;;;;;;;;5034836;28;20401;-84
2021/03/21 04:35:17;;;;;;;3.47;2.70;;;;;;;;;;5033785;28;20738;-84
2021/03/21 04:37:43;;;;;;;4.03;2.83;;;;;;;;;;5026597;28;20407;-84
2021/03/21 04:40:09;;;;;;;4.05;3.25;;;;;;;;;;5033990;28;20446;-84
2021/03/21 04:42:38;;;;;;;3.67;2.83;;;;;;;;;;5033191;28;20460;-85
2021/03/21 04:45:11;;;;;;;4.10;3.03;;;;;;;;;;5063504;28;20402;-84
2021/03/21 04:47:42;;;;;;;3.00;2.30;;;;;;;;;;5053948;28;20388;-84
2021/03/21 04:50:08;;;;;;;3.90;3.60;;;;;;;;;;5037150;28;20954;-84
2021/03/21 04:52:39;;;;;;;4.55;2.80;;;;;;;;;;5036754;28;20408;-84
2021/03/21 04:55:06;;;;;;;3.20;2.90;;;;;;;;;;5017117;28;20400;-85
2021/03/21 04:57:36;;;;;;;3.20;2.65;;;;;;;;;;5032673;28;20392;-84
2021/03/21 05:00:05;;;;;;;2.83;2.63;;;;;;;;;;5033493;28;20397;-85
2021/03/21 05:02:31;;;;;;;2.85;2.42;;;;;;;;;;5018144;28;20401;-84
2021/03/21 05:04:58;;;;;;;4.30;3.30;;;;;;;;;;5017946;28;20383;-84
2021/03/21 05:07:44;;;;;;;4.78;3.03;;;;;;;;;;5001596;28;21072;-84
2021/03/21 05:10:10;;;;;;;3.70;2.97;;;;;;;;;;5026441;28;20417;-84
2021/03/21 05:12:40;;;;;;;2.88;2.67;;;;;;;;;;5036258;28;20462;-84
2021/03/21 05:15:21;;;;;;;4.40;3.17;;;;;;;;;;5021058;28;20478;-85
2021/03/21 05:18:05;;;;;;;4.85;3.45;;;;;;;;;;5002647;28;20403;-85
2021/03/21 05:20:46;;;;;;;3.33;3.03;;;;;;;;;;5041704;28;20747;-84
2021/03/21 05:23:28;;;;;;;6.07;3.03;;;;;;;;;;5053524;28;20385;-84
2021/03/21 05:25:55;;;;;;;3.38;2.50;;;;;;;;;;5034711;28;20902;-85
2021/03/21 05:28:39;;;;;;;3.85;3.13;;;;;;;;;;5026155;28;20518;-84
2021/03/21 05:31:05;;;;;;;4.72;3.15;;;;;;;;;;5058168;28;20417;-84
2021/03/21 05:33:31;;;;;;;8.63;6.35;;;;;;;;;;5037634;28;20407;-84
2021/03/21 05:35:58;;;;;;;13.23;7.25;;;;;;;;;;5056138;28;20395;-85
2021/03/21 05:38:37;;;;;;;7.30;5.80;;;;;;;;;;5041618;28;20434;-84
2021/03/21 05:41:19;;;;;;;6.15;4.65;;;;;;;;;;5019909;28;20484;-85
2021/03/21 05:44:07;;;;;;;7.07;4.38;;;;;;;;;;5036062;28;20440;-84
2021/03/21 05:46:41;;;;;;;5.53;4.18;;;;;;;;;;5019213;28;20406;-84
2021/03/21 05:49:07;;;;;;;7.60;4.55;;;;;;;;;;5054600;28;20442;-84
2021/03/21 05:51:42;;;;;;;4.18;3.78;;;;;;;;;;5059693;28;20498;-84
2021/03/21 05:54:26;;;;;;;6.03;4.80;;;;;;;;;;5036837;28;20425;-85
2021/03/21 05:56:55;;;;;;;7.15;4.00;;;;;;;;;;5036007;28;20417;-84
2021/03/21 05:59:26;;;;;;;4.10;3.20;;;;;;;;;;5036439;28;20400;-85
2021/03/21 06:02:11;;;;;;;4.20;3.80;;;;;;;;;;5028577;28;20415;-85
2021/03/21 06:04:43;;;;;;;4.35;3.30;;;;;;;;;;5051200;28;20381;-85
2021/03/21 06:07:16;;;;;;;4.33;3.60;;;;;;;;;;5036547;28;20780;-84
2021/03/21 06:10:04;;;;;;;5.72;3.40;;;;;;;;;;5035128;28;20914;-85
2021/03/21 06:12:33;;;;;;;4.53;3.55;;;;;;;;;;5032204;28;20413;-85
2021/03/21 06:15:15;;;;;;;4.17;3.30;;;;;;;;;;5036127;28;20394;-85
2021/03/21 06:17:57;;;;;;;3.85;3.47;;;;;;;;;;5018115;28;20402;-85
2021/03/21 06:20:23;;;;;;;3.60;3.20;;;;;;;;;;5036254;28;20812;-85
2021/03/21 06:22:58;;;;;;;2.92;2.72;;;;;;;;;;5056201;28;20392;-85
2021/03/21 06:25:33;;;;;;;3.80;3.20;;;;;;;;;;5061771;28;20444;-84
2021/03/21 06:28:04;;;;;;;4.30;3.30;;;;;;;;;;5053271;28;20741;-84
2021/03/21 06:30:49;;;;;;;4.10;3.03;;;;;;;;;;5024125;28;20420;-85
2021/03/21 06:33:33;;;;;;;3.00;2.80;;;;;;;;;;5053451;28;20772;-85
2021/03/21 06:36:05;;;;;;;4.07;2.92;;;;;;;;;;5035528;28;20391;-84
2021/03/21 06:38:50;;;;;;;4.20;3.28;;;;;;;;;;5036132;28;20819;-85
2021/03/21 06:41:25;;;;;;;3.65;3.08;;;;;;;;;;5053302;28;20480;-85
2021/03/21 06:44:06;;;;;;;3.90;3.00;;;;;;;;;;5035774;28;20417;-84
2021/03/21 06:46:37;;;;;;;6.07;3.60;;;;;;;;;;5047064;28;20404;-85
2021/03/21 06:49:03;;;;;;;6.10;5.28;;;;;;;;;;5035451;28;20409;-85
2021/03/21 06:51:42;;;;;;;4.10;3.65;;;;;;;;;;5042842;28;20419;-84
2021/03/21 06:54:17;;;;;;;3.25;2.95;;;;;;;;;;5034956;28;20756;-85
2021/03/21 06:56:53;;;;;;;3.50;3.20;;;;;;;;;;5052334;28;20401;-85
2021/03/21 06:59:26;;;;;;;5.05;3.85;;;;;;;;;;5035510;28;20902;-85
2021/03/21 07:01:52;;;;;;;4.95;4.30;;;;;;;;;;5016762;28;20399;-85
2021/03/21 07:04:41;;;;;;;5.90;4.93;;;;;;;;;;5029457;28;20396;-85
2021/03/21 07:07:15;;;;;;;4.60;4.15;;;;;;;;;;5048146;28;20455;-87
2021/03/21 07:10:03;;;;;;;3.80;3.50;;;;;;;;;;5022348;28;20405;-85
2021/03/21 07:12:48;;;;;;;3.58;3.13;;;;;;;;;;5026030;28;20456;-85
2021/03/21 07:15:25;;;;;;;3.58;3.30;;;;;;;;;;5035868;28;20397;-85
2021/03/21 07:18:11;;;;;;;4.50;3.78;;;;;;;;;;5051400;28;20407;-85
2021/03/21 07:20:57;;;;;;;4.90;4.35;;;;;;;;;;5008646;28;20411;-85
2021/03/21 07:23:33;;;;;;;3.80;3.40;;;;;;;;;;5033632;28;20388;-85
2021/03/21 07:26:01;;;;;;;4.65;3.72;;;;;;;;;;5017226;28;20404;-86
2021/03/21 07:28:50;;;;;;;4.47;4.07;;;;;;;;;;5026979;28;20397;-86
2021/03/21 07:31:39;;;;;;;4.40;4.10;;;;;;;;;;5028269;28;20463;-85
2021/03/21 07:34:23;;;;;;;9.07;5.30;;;;;;;;;;5017270;28;20458;-85
2021/03/21 07:36:55;;;;;;;6.57;4.95;;;;;;;;;;5023133;28;20976;-85
2021/03/21 07:39:28;;;;;;;4.80;3.75;;;;;;;;;;5034372;28;20412;-87
2021/03/21 07:42:06;;;;;;;4.63;3.92;;;;;;;;;;5016746;28;20436;-87
2021/03/21 07:44:38;;;;;;;3.72;3.40;;;;;;;;;;5017325;28;20393;-86
2021/03/21 07:47:07;;;;;;;3.88;3.58;;;;;;;;;;5048664;28;20405;-86
2021/03/21 07:49:50;;;;;;;5.50;4.03;;;;;;;;;;5033434;28;20386;-86
2021/03/21 07:52:35;;;;;;;3.97;3.63;;;;;;;;;;5018648;28;20421;-87
2021/03/21 07:55:02;;;;;;;4.35;3.97;;;;;;;;;;5051327;28;20394;-87
2021/03/21 07:57:40;;;;;;;6.55;4.55;;;;;;;;;;5026610;28;20408;-87
2021/03/21 08:00:06;;;;;;;5.50;4.85;;;;;;;;;;5018050;28;20487;-85
2021/03/21 08:02:32;;;;;;;5.40;4.05;;;;;;;;;;5017005;28;20402;-87
2021/03/21 08:05:08;;;;;;;5.10;4.60;;;;;;;;;;5033303;28;20416;-87
2021/03/21 08:07:35;;;;;;;8.60;4.15;;;;;;;;;;5011902;28;20409;-86
2021/03/21 08:10:04;;;;;;;4.68;4.00;;;;;;;;;;5051010;28;20476;-86
2021/03/21 08:12:53;;;;;;;5.43;3.85;;;;;;;;;;5017443;28;20424;-87
2021/03/21 08:15:21;;;;;;;5.53;4.20;;;;;;;;;;5042428;28;20486;-86
2021/03/21 08:17:48;;;;;;;7.57;4.00;;;;;;;;;;5017107;28;20907;-87
2021/03/21 08:20:18;;;;;;;35.00;6.80;;;;;;;;;;5032799;28;20397;-88
2021/03/21 08:22:44;;;;;;;8.30;4.38;;;;;;;;;;5033513;28;20489;-86
2021/03/21 08:25:22;;;;;;;4.55;3.92;;;;;;;;;;5033429;28;20397;-86
2021/03/21 08:27:49;;;;;;;9.13;4.28;;;;;;;;;;5046121;28;20406;-86
2021/03/21 08:30:15;;;;;;;4.90;3.80;;;;;;;;;;5028512;28;20410;-86
2021/03/21 08:32:51;;;;;;;11.35;6.30;;;;;;;;;;5040834;28;20413;-86
2021/03/21 08:35:18;;;;;;;11.35;6.47;;;;;;;;;;5069462;28;20391;-86
2021/03/21 08:37:45;;;;;;;5.28;4.25;;;;;;;;;;5021203;28;20401;-85
2021/03/21 08:40:19;;;;;;;10.35;6.22;;;;;;;;;;5031822;28;20393;-86
2021/03/21 08:42:45;;;;;;;8.87;5.97;;;;;;;;;;5032361;28;20471;-86
2021/03/21 08:45:29;;;;;;;10.52;7.45;;;;;;;;;;5036213;28;20393;-86
2021/03/21 08:47:55;;;;;;;7.70;6.05;;;;;;;;;;5014300;28;20409;-86
2021/03/21 08:50:41;;;;;;;5.13;4.28;;;;;;;;;;5029513;28;20407;-86
2021/03/21 08:53:24;;;;;;;6.10;4.63;;;;;;;;;;5023972;28;20495;-88
2021/03/21 08:55:51;;;;;;;4.37;3.87;;;;;;;;;;5015793;28;20432;-88
2021/03/21 08:58:21;;;;;;;6.70;4.57;;;;;;;;;;5006831;28;20420;-88
2021/03/21 09:00:47;;;;;;;6.53;4.53;;;;;;;;;;5012149;28;20419;-85
2021/03/21 09:03:32;;;;;;;5.18;4.30;;;;;;;;;;5017868;28;20436;-88
2021/03/21 09:05:59;;;;;;;6.20;4.07;;;;;;;;;;5036478;28;20408;-88
2021/03/21 09:08:25;;;;;;;4.55;4.15;;;;;;;;;;5039638;28;20455;-86
2021/03/21 09:11:00;;;;;;;4.40;3.72;;;;;;;;;;5011229;28;20898;-87
2021/03/21 09:13:26;;;;;;;5.35;4.55;;;;;;;;;;5013380;28;20425;-91
2021/03/21 09:15:55;;;;;;;7.70;4.70;;;;;;;;;;5013124;28;20396;-87
2021/03/21 09:18:22;;;;;;;5.40;4.20;;;;;;;;;;5027022;28;20836;-86
2021/03/21 09:21:00;;;;;;;5.38;4.22;;;;;;;;;;5032161;28;20402;-86
2021/03/21 09:23:37;;;;;;;7.70;4.20;;;;;;;;;;5023232;28;20410;-88
2021/03/21 09:26:05;;;;;;;4.47;3.60;;;;;;;;;;5047383;28;20777;-86
2021/03/21 09:28:34;;;;;;;4.40;4.00;;;;;;;;;;5030006;28;20512;-85
2021/03/21 09:31:10;;;;;;;5.03;3.92;;;;;;;;;;5031046;28;20824;-86
2021/03/21 09:33:50;;;;;;;4.57;4.18;;;;;;;;;;5011990;28;20409;-88
2021/03/21 09:36:19;;;;;;;5.03;4.03;;;;;;;;;;5013169;28;20435;-88
2021/03/21 09:38:49;;;;;;;5.77;4.33;;;;;;;;;;5049503;28;20475;-88
2021/03/21 09:41:15;;;;;;;5.53;4.33;;;;;;;;;;5031893;28;20853;-89
2021/03/21 09:43:41;;;;;;;5.25;4.75;;;;;;;;;;5012037;28;20412;-88
2021/03/21 09:46:07;;;;;;;7.35;4.57;;;;;;;;;;5015200;28;20896;-88
2021/03/21 09:48:37;;;;;;;7.35;5.28;;;;;;;;;;5052446;28;20466;-90
2021/03/21 09:51:07;;;;;;;7.37;5.30;;;;;;;;;;5041075;28;20476;-90
2021/03/21 09:53:48;;;;;;;8.68;5.60;;;;;;;;;;5018617;28;20400;-89
2021/03/21 09:56:40;;;;;;;5.57;5.07;;;;;;;;;;5019851;28;20459;-88
2021/03/21 09:59:25;;;;;;;5.85;5.20;;;;;;;;;;4998026;28;20484;-88
2021/03/21 10:02:00;;;;;;;13.75;11.10;;;;;;;;;;5047850;28;20428;-87
2021/03/21 10:04:28;;;;;;;8.82;7.75;;;;;;;;;;5034805;28;20397;-87
2021/03/21 10:06:56;;;;;;;7.85;7.00;;;;;;;;;;5034027;28;20413;-87
2021/03/21 10:09:22;;;;;;;7.55;6.35;;;;;;;;;;5031880;28;20441;-87
2021/03/21 10:11:49;;;;;;;10.13;6.97;;;;;;;;;;5028043;28;20425;-88
2021/03/21 10:14:29;;;;;;;8.38;7.20;;;;;;;;;;5032051;28;20919;-87
2021/03/21 10:16:58;;;;;;;9.02;7.25;;;;;;;;;;5029667;28;20416;-88
2021/03/21 10:19:45;;;;;;;8.55;6.85;;;;;;;;;;5034584;28;20393;-87
2021/03/21 10:22:17;;;;;;;8.82;7.82;;;;;;;;;;5021882;28;20983;-87
2021/03/21 10:24:43;;;;;;;8.55;7.65;;;;;;;;;;5040316;28;20896;-89
2021/03/21 10:27:23;;;;;;;8.23;7.32;;;;;;;;;;5018891;28;20414;-89
2021/03/21 10:30:02;;;;;;;9.85;6.90;;;;;;;;;;5049919;28;20818;-87
2021/03/21 10:32:32;;;;;;;10.17;8.00;;;;;;;;;;5053604;28;20500;-88
2021/03/21 10:34:58;;;;;;;8.38;7.35;;;;;;;;;;5018987;28;20398;-88
2021/03/21 10:37:42;;;;;;;7.70;6.90;;;;;;;;;;5017080;28;20497;-88
2021/03/21 10:40:24;;;;;;;8.60;7.53;;;;;;;;;;5019409;28;20508;-87
2021/03/21 10:42:59;;;;;;;7.80;6.97;;;;;;;;;;5031048;28;20456;-87
2021/03/21 10:45:31;;;;;;;9.27;7.20;;;;;;;;;;5025315;28;20417;-88
2021/03/21 10:47:57;;;;;;;8.43;7.60;;;;;;;;;;5009954;28;20462;-88
2021/03/21 10:50:27;;;;;;;9.10;7.80;;;;;;;;;;5009476;28;20450;-88
2021/03/21 10:53:13;;;;;;;9.55;7.68;;;;;;;;;;5028029;28;21024;-87
2021/03/21 10:55:42;;;;;;;8.63;7.18;;;;;;;;;;5007589;28;20758;-88
2021/03/21 10:58:29;;;;;;;9.27;8.18;;;;;;;;;;4994694;28;20977;-87
2021/03/21 11:01:14;;;;;;;9.10;8.20;;;;;;;;;;5002326;28;20969;-87
2021/03/21 11:03:40;;;;;;;13.90;9.55;;;;;;;;;;5038234;28;20413;-88
2021/03/21 11:06:12;;;;;;;11.93;9.32;;;;;;;;;;5039157;28;20405;-86
2021/03/21 11:08:38;;;;;;;9.20;8.30;;;;;;;;;;5023815;28;20414;-86
2021/03/21 11:11:14;;;;;;;10.98;9.82;;;;;;;;;;5033683;28;20433;-88
2021/03/21 11:13:40;;;;;;;12.20;9.68;;;;;;;;;;5028125;28;20476;-87
2021/03/21 11:16:13;;;;;;;9.48;8.48;;;;;;;;;;5012317;28;20402;-87
2021/03/21 11:18:41;;;;;;;10.25;8.60;;;;;;;;;;5027886;28;20435;-89
2021/03/21 11:21:28;;;;;;;9.25;8.30;;;;;;;;;;5032429;28;20884;-88
2021/03/21 11:23:55;;;;;;;10.13;7.70;;;;;;;;;;5022259;28;20505;-88
2021/03/21 11:26:22;;;;;;;9.82;8.32;;;;;;;;;;5012077;28;20413;-88
2021/03/21 11:28:48;;;;;;;8.40;7.10;;;;;;;;;;5023970;28;20491;-87
2021/03/21 11:31:32;;;;;;;8.23;7.43;;;;;;;;;;5051104;28;20815;-87
2021/03/21 11:34:17;;;;;;;7.28;6.57;;;;;;;;;;5008547;28;20495;-87
2021/03/21 11:36:51;;;;;;;11.20;7.35;;;;;;;;;;5030878;28;20405;-85
2021/03/21 11:39:21;;;;;;;8.52;7.72;;;;;;;;;;5025259;28;20587;-85
2021/03/21 11:41:47;;;;;;;8.90;7.80;;;;;;;;;;5026494;28;20861;-84
2021/03/21 11:44:22;;;;;;;10.17;8.13;;;;;;;;;;5027813;28;20405;-85
2021/03/21 11:46:48;;;;;;;8.60;7.80;;;;;;;;;;5048310;28;20413;-88
2021/03/21 11:49:14;;;;;;;9.43;8.23;;;;;;;;;;5031485;28;20761;-85
2021/03/21 11:51:43;;;;;;;10.57;8.82;;;;;;;;;;5008317;28;20427;-85
2021/03/21 11:54:13;;;;;;;9.27;8.33;;;;;;;;;;5008827;28;20559;-85
2021/03/21 11:56:54;;;;;;;9.50;8.50;;;;;;;;;;5011811;28;20413;-85
2021/03/21 11:59:20;;;;;;;11.00;8.70;;;;;;;;;;5030018;28;20441;-85
2021/03/21 12:01:48;;;;;;;9.43;8.23;;;;;;;;;;5012073;28;20398;-85
2021/03/21 12:04:22;;;;;;;9.55;8.65;;;;;;;;;;5030711;28;20484;-86
2021/03/21 12:06:49;;;;;;;9.68;8.75;;;;;;;;;;5027918;28;20409;-86
2021/03/21 12:09:23;;;;;;;10.33;8.93;;;;;;;;;;5012156;28;20409;-86
2021/03/21 12:11:49;;;;;;;12.43;8.68;;;;;;;;;;5023187;28;20436;-85
2021/03/21 12:14:33;;;;;;;10.82;8.90;;;;;;;;;;5005859;28;20432;-85
2021/03/21 12:17:00;;;;;;;9.30;8.23;;;;;;;;;;5035085;28;20407;-84
2021/03/21 12:19:37;;;;;;;9.77;8.80;;;;;;;;;;5006813;28;20402;-86
2021/03/21 12:22:04;;;;;;;11.10;8.77;;;;;;;;;;5024878;28;20420;-86
2021/03/21 12:24:30;;;;;;;10.35;8.40;;;;;;;;;;5000262;28;20405;-86
2021/03/21 12:26:58;;;;;;;9.73;8.50;;;;;;;;;;5014950;28;20451;-86
2021/03/21 12:29:24;;;;;;;10.52;9.30;;;;;;;;;;5018507;28;20407;-87
2021/03/21 12:31:54;;;;;;;8.82;8.02;;;;;;;;;;5023949;28;20491;-87
2021/03/21 12:34:35;;;;;;;11.67;9.03;;;;;;;;;;5029992;28;20965;-87
2021/03/21 12:37:05;;;;;;;10.48;9.43;;;;;;;;;;5050730;28;20405;-87
2021/03/21 12:39:36;;;;;;;12.43;9.50;;;;;;;;;;5042642;28;20503;-86
2021/03/21 12:42:25;;;;;;;11.48;9.70;;;;;;;;;;5050455;28;20395;-87
2021/03/21 12:45:09;;;;;;;11.90;10.33;;;;;;;;;;5038733;28;20413;-87
2021/03/21 12:47:39;;;;;;;11.45;9.55;;;;;;;;;;5045124;28;20843;-87
2021/03/21 12:50:26;;;;;;;12.40;9.90;;;;;;;;;;5028155;28;20401;-88
2021/03/21 12:52:55;;;;;;;12.63;10.25;;;;;;;;;;5040591;28;20433;-88
2021/03/21 12:55:28;;;;;;;12.02;10.10;;;;;;;;;;5003393;28;20447;-85
2021/03/21 12:57:54;;;;;;;10.43;9.03;;;;;;;;;;5008982;28;20637;-87
2021/03/21 13:00:21;;;;;;;11.07;9.40;;;;;;;;;;5013365;28;20484;-86
2021/03/21 13:03:14;;;;;;;12.68;9.48;;;;;;;;;;5020332;28;20401;-88
2021/03/21 13:05:44;;;;;;;10.73;9.63;;;;;;;;;;5031759;28;20492;-86
2021/03/21 13:08:10;;;;;;;12.40;10.53;;;;;;;;;;5009976;28;20523;-87
2021/03/21 13:10:40;;;;;;;10.77;9.68;;;;;;;;;;5008283;28;20492;-86
2021/03/21 13:13:06;;;;;;;11.43;10.00;;;;;;;;;;5013171;28;20427;-87
2021/03/21 13:15:32;;;;;;;11.05;9.73;;;;;;;;;;5004599;28;20517;-87
2021/03/21 13:17:58;;;;;;;12.63;9.40;;;;;;;;;;5006613;28;20419;-88
2021/03/21 13:20:26;;;;;;;12.73;9.73;;;;;;;;;;5002453;28;20410;-87
2021/03/21 13:22:52;;;;;;;10.18;9.18;;;;;;;;;;5016329;28;20469;-86
2021/03/21 13:25:23;;;;;;;10.35;9.43;;;;;;;;;;5005550;28;20782;-86
2021/03/21 13:27:50;;;;;;;13.13;10.48;;;;;;;;;;5004510;28;20811;-86
2021/03/21 13:30:22;;;;;;;11.48;9.73;;;;;;;;;;5010863;28;20399;-86
2021/03/21 13:32:51;;;;;;;10.65;9.05;;;;;;;;;;5024034;28;20411;-88
2021/03/21 13:35:17;;;;;;;10.70;9.70;;;;;;;;;;5019249;28;20399;-86
2021/03/21 13:37:43;;;;;;;11.20;10.00;;;;;;;;;;5009694;28;20450;-88
2021/03/21 13:40:09;;;;;;;19.08;16.10;;;;;;;;;;5022024;28;20446;-87
2021/03/21 13:42:38;;;;;;;11.25;10.13;;;;;;;;;;5017170;28;20413;-88
2021/03/21 13:45:04;;;;;;;12.02;10.35;;;;;;;;;;5004543;28;20414;-87
2021/03/21 13:47:37;;;;;;;11.27;9.88;;;;;;;;;;5005625;28;20412;-86
2021/03/21 13:50:12;;;;;;;11.35;9.93;;;;;;;;;;5026292;28;20501;-89
2021/03/21 13:52:38;;;;;;;12.13;10.93;;;;;;;;;;5021753;28;20449;-88
2021/03/21 13:55:04;;;;;;;12.13;10.93;;;;;;;;;;5005972;28;20494;-88
2021/03/21 13:57:33;;;;;;;11.95;10.75;;;;;;;;;;5028201;28;20473;-87
2021/03/21 13:59:59;;;;;;;11.93;10.80;;;;;;;;;;5011578;28;20422;-86
2021/03/21 14:02:25;;;;;;;19.40;10.38;;;;;;;;;;5007153;28;20415;-86
2021/03/21 14:04:51;;;;;;;10.63;9.55;;;;;;;;;;5026209;28;21025;-87
2021/03/21 14:07:17;;;;;;;12.82;10.48;;;;;;;;;;5021763;28;20407;-86
2021/03/21 14:09:46;;;;;;;10.50;9.43;;;;;;;;;;5012798;28;20419;-86
2021/03/21 14:12:12;;;;;;;10.57;9.57;;;;;;;;;;5025424;28;20422;-86
2021/03/21 14:14:44;;;;;;;11.65;9.80;;;;;;;;;;5021030;28;20424;-86
2021/03/21 14:17:10;;;;;;;11.60;10.40;;;;;;;;;;5030020;28;20902;-86
2021/03/21 14:19:36;;;;;;;13.25;10.43;;;;;;;;;;5012248;28;20407;-86
2021/03/21 14:22:02;;;;;;;11.13;10.10;;;;;;;;;;5031949;28;20472;-85
2021/03/21 14:24:28;;;;;;;11.48;9.65;;;;;;;;;;5027876;28;20407;-85
2021/03/21 14:26:54;;;;;;;10.55;9.40;;;;;;;;;;5044055;28;20816;-86
2021/03/21 14:29:20;;;;;;;10.85;9.73;;;;;;;;;;5028944;28;20460;-86
2021/03/21 14:31:46;;;;;;;10.75;9.70;;;;;;;;;;5012517;28;20420;-86
2021/03/21 14:34:12;;;;;;;10.43;9.43;;;;;;;;;;5030856;28;20486;-86
2021/03/21 14:36:38;;;;;;;10.10;9.10;;;;;;;;;;5029653;28;20415;-86
2021/03/21 14:39:04;;;;;;;10.18;9.07;;;;;;;;;;5011383;28;20403;-86
2021/03/21 14:41:30;;;;;;;10.90;9.73;;;;;;;;;;5012563;28;20414;-86
2021/03/21 14:43:56;;;;;;;10.48;9.35;;;;;;;;;;5027321;28;20957;-85
2021/03/21 14:46:22;;;;;;;13.50;10.98;;;;;;;;;;5004315;28;20406;-86
2021/03/21 14:48:51;;;;;;;10.57;9.52;;;;;;;;;;5003705;28;20417;-86
2021/03/21 14:51:17;;;;;;;11.23;9.73;;;;;;;;;;5012781;28;20411;-86
2021/03/21 14:53:43;;;;;;;11.07;10.00;;;;;;;;;;5013993;28;20407;-86
2021/03/21 14:56:09;;;;;;;11.57;9.70;;;;;;;;;;5031673;28;20470;-86
2021/03/21 14:58:35;;;;;;;10.13;9.05;;;;;;;;;;5026801;28;20414;-86
2021/03/21 15:01:04;;;;;;;12.30;9.50;;;;;;;;;;5020636;28;20921;-86
2021/03/21 15:03:30;;;;;;;10.05;9.15;;;;;;;;;;5028276;28;20411;-86
2021/03/21 15:05:57;;;;;;;15.18;11.40;;;;;;;;;;5026403;28;20409;-85